Time;durP1;ratioP1;P1;durP2;ratioP2;P2;SDS_P1;SDS_P2;PMS_P1;PMS_P2;Temp;Humidity;BMP_temperature;BMP_pressure;BME280_temperature;BME280_humidity;BME280_pressure;Samples;Min_cycle;Max_cycle;Signal;HPM_P1;HPM_P2
2021/09/26 00:01:55;;;;;;;32.60;16.17;;;;;;;16.78;100.00;101247.81;7395606;19;20422;-51
2021/09/26 00:04:25;;;;;;;13.33;8.07;;;;;;;16.73;100.00;101241.59;7402251;19;20439;-54
2021/09/26 00:06:57;;;;;;;15.50;10.63;;;;;;;16.52;100.00;101244.56;7395539;19;20503;-53
2021/09/26 00:09:28;;;;;;;25.77;16.77;;;;;;;16.35;100.00;101249.34;7404541;19;20405;-57
2021/09/26 00:11:58;;;;;;;25.17;12.40;;;;;;;16.47;100.00;101247.06;7395004;19;20415;-53
2021/09/26 00:14:27;;;;;;;28.77;19.07;;;;;;;16.62;100.00;101251.78;7399386;19;20499;-56
2021/09/26 00:16:58;;;;;;;85.57;56.93;;;;;;;16.80;100.00;101248.72;7393013;19;20414;-54
2021/09/26 00:19:28;;;;;;;70.63;44.53;;;;;;;16.81;100.00;101249.63;7402078;19;20384;-51
2021/09/26 00:22:00;;;;;;;31.50;21.83;;;;;;;16.81;100.00;101255.69;7394981;19;20487;-55
2021/09/26 00:24:29;;;;;;;34.87;24.97;;;;;;;16.77;100.00;101242.56;7401692;19;20446;-56
2021/09/26 00:26:59;;;;;;;27.30;18.57;;;;;;;16.76;100.00;101252.09;7395518;19;20425;-59
2021/09/26 00:29:28;;;;;;;31.67;20.73;;;;;;;16.84;100.00;101245.34;7399897;19;20396;-53
2021/09/26 00:31:58;;;;;;;32.07;20.27;;;;;;;16.93;100.00;101249.00;7395143;19;20503;-59
2021/09/26 00:34:27;;;;;;;22.10;14.73;;;;;;;16.97;100.00;101243.91;7402011;19;20439;-58
2021/09/26 00:36:59;;;;;;;22.13;13.90;;;;;;;16.95;100.00;101247.31;7395562;19;20752;-52
2021/09/26 00:39:29;;;;;;;19.23;13.87;;;;;;;17.01;100.00;101244.84;7401924;19;20384;-53
2021/09/26 00:41:59;;;;;;;11.70;8.57;;;;;;;16.93;100.00;101249.00;7394823;19;20483;-58
2021/09/26 00:44:28;;;;;;;15.30;10.80;;;;;;;16.88;100.00;101238.50;7401559;19;20452;-54
2021/09/26 00:46:58;;;;;;;17.30;10.77;;;;;;;16.89;100.00;101237.63;7393526;19;20421;-56
2021/09/26 00:49:28;;;;;;;15.00;9.97;;;;;;;16.88;100.00;101235.88;7403498;19;20400;-58
2021/09/26 00:52:00;;;;;;;19.80;13.10;;;;;;;16.90;100.00;101238.50;7394281;19;20869;-58
2021/09/26 00:54:30;;;;;;;21.93;14.80;;;;;;;16.92;100.00;101242.03;7401646;19;20513;-56
2021/09/26 00:57:00;;;;;;;19.23;11.00;;;;;;;17.01;100.00;101232.72;7395191;19;20479;-59
2021/09/26 00:59:29;;;;;;;13.77;10.20;;;;;;;16.98;100.00;101247.41;7401931;19;20917;-58
2021/09/26 01:01:59;;;;;;;11.87;6.97;;;;;;;16.75;100.00;101247.72;7393840;19;20481;-59
2021/09/26 01:04:29;;;;;;;9.17;6.50;;;;;;;16.72;100.00;101245.94;7401185;19;20467;-56
2021/09/26 01:07:08;;;;;;;9.40;6.83;;;;;;;16.81;100.00;101253.09;7393840;19;20490;-55
2021/09/26 01:09:43;;;;;;;10.80;6.30;;;;;;;16.80;100.00;101253.94;7401770;19;20893;-57
2021/09/26 01:12:16;;;;;;;13.70;9.03;;;;;;;16.81;100.00;101258.28;7395518;19;20746;-56
2021/09/26 01:14:51;;;;;;;11.67;6.97;;;;;;;16.83;100.00;101253.13;7404205;19;20480;-58
2021/09/26 01:17:25;;;;;;;11.37;8.00;;;;;;;16.88;100.00;101246.31;7395366;19;20419;-55
2021/09/26 01:20:30;;;;;;;12.30;8.37;;;;;;;16.92;100.00;101242.03;7403557;19;20714;-58
2021/09/26 01:23:26;;;;;;;13.10;8.73;;;;;;;16.98;100.00;101242.19;7393942;19;20459;-53
2021/09/26 01:26:00;;;;;;;11.47;7.97;;;;;;;16.92;100.00;101242.91;7393392;19;20400;-54
2021/09/26 01:28:36;;;;;;;11.77;7.63;;;;;;;16.87;100.00;101241.94;7401198;19;20446;-56
2021/09/26 01:31:10;;;;;;;11.40;7.30;;;;;;;16.88;100.00;101231.53;7392436;19;20414;-53
2021/09/26 01:33:43;;;;;;;22.07;11.13;;;;;;;16.90;100.00;101233.28;7399705;19;20424;-54
2021/09/26 01:36:18;;;;;;;11.87;7.27;;;;;;;17.00;100.00;101233.56;7394552;19;20479;-58
2021/09/26 01:38:52;;;;;;;10.63;7.73;;;;;;;17.07;100.00;101236.34;7400475;19;20659;-58
2021/09/26 01:41:26;;;;;;;15.90;10.40;;;;;;;16.99;100.00;101231.78;7392919;19;20423;-57
2021/09/26 01:43:58;;;;;;;17.63;11.63;;;;;;;16.82;100.00;101231.38;7399808;19;20439;-57
2021/09/26 01:46:33;;;;;;;9.03;6.20;;;;;;;16.72;100.00;101234.63;7392536;19;20424;-57
2021/09/26 01:49:06;;;;;;;19.03;11.23;;;;;;;16.74;100.00;101241.66;7398612;19;20708;-59
2021/09/26 01:51:37;;;;;;;6.70;4.63;;;;;;;16.65;100.00;101240.53;7394961;19;20433;-59
2021/09/26 01:54:09;;;;;;;16.00;10.50;;;;;;;16.73;100.00;101252.03;7399833;19;20511;-58
2021/09/26 01:56:39;;;;;;;14.27;6.63;;;;;;;16.66;100.00;101250.97;7392179;19;20494;-57
2021/09/26 01:59:09;;;;;;;9.37;5.70;;;;;;;16.69;100.00;101247.56;7402824;19;20456;-58
2021/09/26 02:01:42;;;;;;;8.50;5.83;;;;;;;16.87;100.00;101245.41;7392267;19;20742;-57
2021/09/26 02:04:12;;;;;;;8.77;6.03;;;;;;;16.92;100.00;101242.03;7399546;19;20440;-56
2021/09/26 02:06:43;;;;;;;8.13;5.40;;;;;;;16.88;100.00;101236.75;7391526;19;20494;-57
2021/09/26 02:09:13;;;;;;;10.57;6.60;;;;;;;16.80;100.00;101235.69;7402856;19;20387;-52
2021/09/26 02:11:44;;;;;;;7.93;5.03;;;;;;;16.88;100.00;101236.75;7393169;19;20502;-53
2021/09/26 02:14:14;;;;;;;8.70;5.67;;;;;;;16.93;100.00;101238.59;7398971;19;20517;-52
2021/09/26 02:16:46;;;;;;;7.20;5.30;;;;;;;16.98;100.00;101242.19;7390237;19;20419;-52
2021/09/26 02:19:16;;;;;;;7.50;5.47;;;;;;;16.96;100.00;101238.66;7400719;19;20456;-49
2021/09/26 02:21:47;;;;;;;7.80;4.63;;;;;;;16.83;100.00;101238.34;7391822;19;20487;-57
2021/09/26 02:24:17;;;;;;;6.77;4.70;;;;;;;16.78;100.00;101234.78;7398005;19;20454;-56
2021/09/26 02:26:46;;;;;;;5.37;4.27;;;;;;;16.70;100.00;101236.31;7390823;19;20412;-57
2021/09/26 02:29:16;;;;;;;8.00;4.80;;;;;;;16.62;100.00;101238.75;7397455;19;20738;-56
2021/09/26 02:31:48;;;;;;;6.23;4.30;;;;;;;16.77;100.00;101233.00;7391757;19;20414;-58
2021/09/26 02:34:17;;;;;;;5.60;3.70;;;;;;;16.77;100.00;101232.13;7398367;19;20919;-57
2021/09/26 02:36:47;;;;;;;6.63;4.57;;;;;;;16.71;100.00;101235.47;7391676;19;20427;-55
2021/09/26 02:39:18;;;;;;;11.20;4.70;;;;;;;16.72;100.00;101234.63;7400137;19;20867;-56
2021/09/26 02:41:53;;;;;;;11.40;5.00;;;;;;;16.64;100.00;101238.75;7390998;19;20429;-55
2021/09/26 02:44:26;;;;;;;5.60;3.50;;;;;;;16.50;100.00;101236.69;7398401;19;20438;-56
2021/09/26 02:47:03;;;;;;;6.33;4.00;;;;;;;16.62;100.00;101240.47;7392427;19;20684;-57
2021/09/26 02:49:32;;;;;;;7.13;4.00;;;;;;;16.69;100.00;101234.56;7397050;19;20470;-55
2021/09/26 02:52:06;;;;;;;5.30;3.43;;;;;;;16.67;100.00;101233.66;7391071;19;20489;-55
2021/09/26 02:54:38;;;;;;;7.20;4.00;;;;;;;16.72;100.00;101229.44;7400599;19;20405;-53
2021/09/26 02:57:10;;;;;;;7.37;4.30;;;;;;;16.76;100.00;101223.44;7393646;19;20877;-57
2021/09/26 02:59:40;;;;;;;8.50;4.00;;;;;;;16.84;100.00;101224.50;7399525;19;20452;-55
2021/09/26 03:02:12;;;;;;;5.20;3.70;;;;;;;16.82;100.00;101223.56;7397521;19;20414;-57
2021/09/26 03:04:45;;;;;;;7.83;3.57;;;;;;;16.79;100.00;101220.91;7408661;19;20411;-53
2021/09/26 03:07:15;;;;;;;6.53;4.00;;;;;;;16.84;100.00;101221.91;7396230;19;20411;-54
2021/09/26 03:09:44;;;;;;;5.60;3.87;;;;;;;16.82;100.00;101218.34;7406246;19;20885;-57
2021/09/26 03:12:15;;;;;;;7.07;3.87;;;;;;;16.67;100.00;101223.22;7396180;19;20691;-53
2021/09/26 03:14:45;;;;;;;5.03;3.70;;;;;;;16.70;100.00;101213.75;7408118;19;20432;-56
2021/09/26 03:17:17;;;;;;;5.97;4.10;;;;;;;16.77;100.00;101212.16;7397975;19;20422;-57
2021/09/26 03:19:47;;;;;;;6.90;3.23;;;;;;;16.67;100.00;101212.81;7404478;19;20407;-57
2021/09/26 03:22:17;;;;;;;5.60;3.97;;;;;;;16.57;100.00;101209.09;7374823;19;20466;-54
2021/09/26 03:24:47;;;;;;;6.90;3.70;;;;;;;16.56;100.00;101208.22;7408133;19;20407;-57
2021/09/26 03:27:16;;;;;;;7.27;4.00;;;;;;;16.72;100.00;101205.97;7397309;19;20938;-52
2021/09/26 03:29:45;;;;;;;5.60;3.50;;;;;;;16.70;100.00;101205.03;7408474;19;20395;-56
2021/09/26 03:32:18;;;;;;;6.70;3.07;;;;;;;16.72;100.00;101199.03;7398775;19;20514;-57
2021/09/26 03:34:47;;;;;;;5.90;3.87;;;;;;;16.58;100.00;101205.66;7407641;19;20666;-57
2021/09/26 03:37:17;;;;;;;6.97;3.97;;;;;;;16.64;100.00;101202.28;7397313;19;20431;-49
2021/09/26 03:39:46;;;;;;;5.53;3.90;;;;;;;16.62;100.00;101196.19;7403849;19;20467;-53
2021/09/26 03:42:16;;;;;;;4.40;3.33;;;;;;;16.53;100.00;101204.66;7397162;19;20419;-58
2021/09/26 03:44:45;;;;;;;6.43;4.03;;;;;;;16.54;100.00;101209.00;7407152;19;20420;-58
2021/09/26 03:47:17;;;;;;;10.93;4.83;;;;;;;16.62;100.00;101209.19;7395851;19;20697;-55
2021/09/26 03:49:47;;;;;;;10.00;4.83;;;;;;;16.55;100.00;101209.06;7404339;19;20404;-55
2021/09/26 03:52:16;;;;;;;5.47;4.10;;;;;;;16.69;100.00;101203.28;7395299;19;20763;-52
2021/09/26 03:54:46;;;;;;;6.23;4.47;;;;;;;16.56;100.00;101207.34;7407086;19;20691;-55
2021/09/26 03:57:15;;;;;;;5.93;4.03;;;;;;;16.48;100.00;101201.94;7397228;19;20685;-51
2021/09/26 03:59:45;;;;;;;9.80;4.43;;;;;;;16.62;100.00;101202.28;7407520;19;20467;-59
2021/09/26 04:02:17;;;;;;;11.53;4.70;;;;;;;16.69;100.00;101192.88;7396551;19;20487;-55
2021/09/26 04:04:47;;;;;;;8.00;5.00;;;;;;;16.72;100.00;101190.34;7402892;19;20384;-52
2021/09/26 04:07:16;;;;;;;6.57;4.47;;;;;;;16.65;100.00;101191.03;7395350;19;20419;-51
2021/09/26 04:09:46;;;;;;;8.40;4.60;;;;;;;16.59;100.00;101192.66;7402219;19;20464;-56
2021/09/26 04:12:15;;;;;;;7.37;5.30;;;;;;;16.52;100.00;101189.88;7392334;19;20412;-54
2021/09/26 04:14:45;;;;;;;16.50;7.43;;;;;;;16.59;100.00;101191.78;7405947;19;20419;-58
2021/09/26 04:17:14;;;;;;;8.60;5.30;;;;;;;16.59;100.00;101186.56;7396711;19;20750;-54
2021/09/26 04:19:46;;;;;;;8.97;5.30;;;;;;;16.73;100.00;101184.28;7402538;19;20386;-56
2021/09/26 04:22:16;;;;;;;9.37;5.17;;;;;;;16.82;100.00;101179.28;7394405;19;20419;-54
2021/09/26 04:24:45;;;;;;;8.47;5.20;;;;;;;16.80;100.00;101182.69;7405866;19;20427;-56
2021/09/26 04:27:15;;;;;;;9.40;5.70;;;;;;;16.81;100.00;101192.28;7374589;19;20399;-50
2021/09/26 04:29:44;;;;;;;9.17;5.70;;;;;;;16.73;100.00;101192.09;7405775;19;20403;-59
2021/09/26 04:32:14;;;;;;;10.03;5.37;;;;;;;16.66;100.00;101187.59;7394201;19;20906;-57
2021/09/26 04:34:46;;;;;;;12.97;6.50;;;;;;;16.64;100.00;101184.97;7405259;19;20471;-54
2021/09/26 04:37:16;;;;;;;7.20;5.50;;;;;;;16.82;100.00;101194.06;7394300;19;20438;-59
2021/09/26 04:39:45;;;;;;;11.87;6.23;;;;;;;16.69;100.00;101193.75;7404532;19;20688;-57
2021/09/26 04:42:14;;;;;;;10.43;5.60;;;;;;;16.74;100.00;101186.03;7393995;19;20424;-57
2021/09/26 04:44:44;;;;;;;7.80;5.47;;;;;;;16.70;100.00;101192.03;7405541;19;20493;-52
2021/09/26 04:47:14;;;;;;;18.93;12.60;;;;;;;16.70;100.00;101189.41;7394011;19;20416;-54
2021/09/26 04:49:43;;;;;;;12.23;8.83;;;;;;;16.78;100.00;101190.50;7401116;19;20452;-51
2021/09/26 04:52:15;;;;;;;31.50;22.47;;;;;;;16.73;100.00;101184.28;7395260;19;20430;-54
2021/09/26 04:54:45;;;;;;;49.10;35.50;;;;;;;16.62;100.00;101183.16;7404968;19;20416;-53
2021/09/26 04:57:14;;;;;;;35.97;25.63;;;;;;;16.51;100.00;101191.59;7395657;19;20419;-51
2021/09/26 04:59:45;;;;;;;20.93;13.80;;;;;;;16.45;100.00;101191.44;7401011;19;20388;-56
2021/09/26 05:02:14;;;;;;;26.60;18.90;;;;;;;16.42;100.00;101205.25;7374476;19;20411;-58
2021/09/26 05:04:44;;;;;;;10.10;7.80;;;;;;;16.41;100.00;101202.63;7404983;19;20428;-56
2021/09/26 05:07:17;;;;;;;13.53;7.57;;;;;;;16.36;100.00;101199.03;7395953;19;20431;-57
2021/09/26 05:09:46;;;;;;;21.67;13.73;;;;;;;16.36;100.00;101209.44;7400819;19;20443;-57
2021/09/26 05:12:16;;;;;;;15.60;10.40;;;;;;;16.38;100.00;101207.75;7394314;19;20417;-57
2021/09/26 05:14:45;;;;;;;13.97;8.90;;;;;;;16.36;100.00;101202.50;7404152;19;20475;-57
2021/09/26 05:17:15;;;;;;;26.53;17.87;;;;;;;16.40;100.00;101206.09;7395428;19;20439;-57
2021/09/26 05:19:47;;;;;;;16.30;9.80;;;;;;;16.37;100.00;101206.00;7402149;19;20407;-56
2021/09/26 05:22:19;;;;;;;18.10;9.80;;;;;;;16.35;100.00;101207.69;7394344;19;20760;-57
2021/09/26 05:24:49;;;;;;;11.33;8.07;;;;;;;16.39;100.00;101209.50;7403961;19;20499;-56
2021/09/26 05:27:18;;;;;;;9.93;7.00;;;;;;;16.35;100.00;101207.69;7396606;19;20482;-59
2021/09/26 05:29:48;;;;;;;24.03;13.70;;;;;;;16.36;100.00;101204.25;7403724;19;20859;-56
2021/09/26 05:32:17;;;;;;;19.60;14.73;;;;;;;16.37;100.00;101204.28;7391579;19;20481;-57
2021/09/26 05:34:47;;;;;;;15.73;10.57;;;;;;;16.39;100.00;101205.19;7403290;19;20415;-58
2021/09/26 05:37:16;;;;;;;100.50;72.23;;;;;;;16.42;100.00;101209.59;7394663;19;20496;-58
2021/09/26 05:39:48;;;;;;;26.60;15.80;;;;;;;16.44;100.00;101213.13;7404280;19;20396;-59
2021/09/26 05:42:18;;;;;;;15.40;10.80;;;;;;;16.47;100.00;101208.00;7393508;19;20415;-54
2021/09/26 05:44:47;;;;;;;11.33;8.50;;;;;;;16.46;100.00;101203.63;7399666;19;20455;-55
2021/09/26 05:47:17;;;;;;;11.83;8.07;;;;;;;16.45;100.00;101204.44;7370546;19;20431;-52
2021/09/26 05:49:46;;;;;;;11.67;8.70;;;;;;;16.40;100.00;101206.94;7399278;19;20398;-53
2021/09/26 05:52:16;;;;;;;14.00;8.80;;;;;;;16.44;100.00;101207.91;7369947;19;20515;-56
2021/09/26 05:54:45;;;;;;;18.03;9.07;;;;;;;16.43;100.00;101200.94;7403111;19;20423;-57
2021/09/26 05:57:18;;;;;;;46.23;30.37;;;;;;;16.46;100.00;101211.44;7392504;19;20429;-59
2021/09/26 05:59:47;;;;;;;39.67;27.73;;;;;;;16.47;100.00;101202.78;7403899;19;20410;-59
2021/09/26 06:02:22;;;;;;;91.87;55.17;;;;;;;16.51;100.00;101207.22;7393249;19;20413;-55
2021/09/26 06:04:52;;;;;;;33.37;20.87;;;;;;;16.51;100.00;101203.75;7403481;19;20435;-55
2021/09/26 06:07:22;;;;;;;27.30;15.67;;;;;;;16.51;100.00;101212.41;7370022;19;20423;-53
2021/09/26 06:09:51;;;;;;;15.03;9.97;;;;;;;16.53;100.00;101215.97;7400821;19;20403;-53
2021/09/26 06:12:23;;;;;;;45.50;29.93;;;;;;;16.55;100.00;101214.25;7368099;19;20427;-54
2021/09/26 06:14:53;;;;;;;24.63;15.70;;;;;;;16.58;100.00;101214.34;7398685;19;20392;-55
2021/09/26 06:17:22;;;;;;;20.40;13.67;;;;;;;16.58;100.00;101211.75;7391194;19;20487;-52
2021/09/26 06:19:52;;;;;;;20.80;13.57;;;;;;;16.64;100.00;101215.31;7398840;19;20664;-56
2021/09/26 06:22:24;;;;;;;23.77;12.07;;;;;;;16.62;100.00;101206.59;7390502;19;20420;-55
2021/09/26 06:24:56;;;;;;;16.27;12.00;;;;;;;16.66;100.00;101208.44;7402748;19;20395;-55
2021/09/26 06:27:28;;;;;;;15.20;11.30;;;;;;;16.67;100.00;101205.00;7383224;19;20427;-52
2021/09/26 06:29:58;;;;;;;10.93;8.80;;;;;;;16.66;100.00;101204.09;7398480;19;20390;-55
2021/09/26 06:32:31;;;;;;;14.83;8.57;;;;;;;16.69;100.00;101204.19;7390246;19;20465;-54
2021/09/26 06:35:01;;;;;;;11.40;8.27;;;;;;;16.71;100.00;101196.38;7403736;19;20463;-52
2021/09/26 06:37:30;;;;;;;15.83;9.67;;;;;;;16.73;100.00;101210.34;7398486;19;20891;-51
2021/09/26 06:40:00;;;;;;;12.00;9.00;;;;;;;16.73;100.00;101200.78;7405793;19;20392;-55
2021/09/26 06:42:32;;;;;;;13.00;8.67;;;;;;;16.76;100.00;101204.31;7396288;19;20435;-52
2021/09/26 06:45:01;;;;;;;10.50;9.20;;;;;;;16.81;100.00;101197.50;7408947;19;20403;-57
2021/09/26 06:47:31;;;;;;;13.67;9.47;;;;;;;16.89;100.00;101198.56;7397462;19;20423;-58
2021/09/26 06:50:00;;;;;;;24.07;15.90;;;;;;;16.99;100.00;101199.63;7408286;19;20436;-56
2021/09/26 06:52:30;;;;;;;50.53;29.63;;;;;;;17.12;100.00;101201.69;7394867;19;20487;-53
2021/09/26 06:54:59;;;;;;;144.07;95.00;;;;;;;17.16;100.00;101193.97;7408500;19;20467;-54
2021/09/26 06:57:31;;;;;;;21.10;14.53;;;;;;;17.24;100.00;101197.59;7398065;19;20704;-55
2021/09/26 07:00:01;;;;;;;34.27;22.80;;;;;;;17.23;100.00;101195.84;7408733;19;20395;-52
2021/09/26 07:02:30;;;;;;;24.80;17.73;;;;;;;17.26;100.00;101190.69;7395544;19;20455;-55
2021/09/26 07:05:00;;;;;;;13.60;9.43;;;;;;;17.32;100.00;101190.81;7409510;19;20400;-55
2021/09/26 07:07:29;;;;;;;15.47;13.63;;;;;;;17.35;100.00;101190.88;7400352;19;20695;-57
2021/09/26 07:09:59;;;;;;;19.80;14.40;;;;;;;17.44;100.00;101187.59;7406199;19;20487;-57
2021/09/26 07:12:28;;;;;;;12.67;9.50;;;;;;;17.53;100.00;101186.88;7378693;19;20458;-57
2021/09/26 07:15:01;;;;;;;18.20;11.10;;;;;;;17.57;100.00;101191.31;7405142;19;20476;-59
2021/09/26 07:17:31;;;;;;;15.00;11.17;;;;;;;17.61;100.00;101184.41;7396249;19;20728;-53
2021/09/26 07:20:00;;;;;;;13.30;11.07;;;;;;;17.66;100.00;101191.50;7400756;19;21148;-52
2021/09/26 07:22:30;;;;;;;19.17;9.30;;;;;;;17.71;100.00;101194.19;7398647;19;20411;-56
2021/09/26 07:25:00;;;;;;;16.30;10.60;;;;;;;17.76;100.00;101186.44;7402467;19;20463;-55
2021/09/26 07:27:29;;;;;;;15.47;11.90;;;;;;;17.86;100.00;101188.38;7405199;19;20471;-55
2021/09/26 07:30:01;;;;;;;17.17;10.50;;;;;;;17.87;100.00;101189.25;7404360;19;20451;-55
2021/09/26 07:32:31;;;;;;;14.33;10.13;;;;;;;17.99;100.00;101188.59;7401943;19;20495;-55
2021/09/26 07:35:00;;;;;;;14.17;10.43;;;;;;;18.06;100.00;101186.13;7406871;19;20432;-54
2021/09/26 07:37:30;;;;;;;10.97;8.40;;;;;;;18.09;100.00;101185.31;7402846;19;20468;-55
2021/09/26 07:39:59;;;;;;;11.60;8.30;;;;;;;18.15;100.00;101185.44;7403382;19;20430;-52
2021/09/26 07:42:29;;;;;;;12.83;8.27;;;;;;;18.19;100.00;101181.13;7403902;19;20471;-55
2021/09/26 07:45:02;;;;;;;11.20;7.47;;;;;;;18.30;100.00;101176.97;7402825;19;20825;-54
2021/09/26 07:47:34;;;;;;;9.80;8.40;;;;;;;18.34;100.00;101175.28;7402675;19;20394;-55
2021/09/26 07:50:05;;;;;;;11.87;7.50;;;;;;;18.37;100.00;101172.75;7405792;19;20418;-56
2021/09/26 07:52:35;;;;;;;17.50;11.23;;;;;;;18.46;100.00;101169.41;7400384;19;20423;-57
2021/09/26 07:55:05;;;;;;;11.93;8.17;;;;;;;18.46;100.00;101169.41;7403975;19;20765;-55
2021/09/26 07:57:35;;;;;;;10.20;8.33;;;;;;;18.56;100.00;101167.81;7406436;19;20407;-52
2021/09/26 08:00:08;;;;;;;8.50;6.90;;;;;;;18.62;100.00;101171.38;7402079;19;20452;-58
2021/09/26 08:02:40;;;;;;;11.90;7.60;;;;;;;18.56;100.00;101170.41;7402148;19;20396;-55
2021/09/26 08:05:11;;;;;;;13.73;7.97;;;;;;;18.60;100.00;101167.88;7402980;19;20388;-58
2021/09/26 08:07:41;;;;;;;13.93;9.30;;;;;;;18.74;100.00;101159.34;7397594;19;20494;-56
2021/09/26 08:10:12;;;;;;;16.97;7.50;;;;;;;18.80;100.00;101163.78;7402746;19;20451;-52
2021/09/26 08:12:41;;;;;;;12.00;6.53;;;;;;;18.84;100.00;101160.34;7397013;19;20922;-58
2021/09/26 08:15:13;;;;;;;15.40;8.03;;;;;;;18.90;100.00;101160.44;7402360;19;20388;-59
2021/09/26 08:17:45;;;;;;;8.47;6.63;;;;;;;18.97;100.00;101164.88;7383814;19;20694;-59
2021/09/26 08:20:16;;;;;;;9.40;6.80;;;;;;;19.06;100.00;101160.69;7402326;19;20420;-57
2021/09/26 08:22:47;;;;;;;11.27;7.40;;;;;;;19.11;100.00;101165.13;7400408;19;20419;-57
2021/09/26 08:25:17;;;;;;;38.73;31.33;;;;;;;19.21;100.00;101159.97;7402006;19;20388;-58
2021/09/26 08:27:46;;;;;;;38.53;27.23;;;;;;;19.30;100.00;101163.59;7392601;19;20474;-58
2021/09/26 08:30:16;;;;;;;8.37;6.07;;;;;;;19.37;100.00;101161.94;7404842;19;20850;-56
2021/09/26 08:32:50;;;;;;;11.67;7.73;;;;;;;19.43;100.00;101163.72;7390957;19;20936;-58
2021/09/26 08:35:20;;;;;;;11.23;8.03;;;;;;;19.45;100.00;101148.94;7406437;19;20395;-58
2021/09/26 08:37:52;;;;;;;7.83;6.20;;;;;;;19.46;100.00;101157.66;7397798;19;20880;-59
2021/09/26 08:40:21;;;;;;;10.60;5.60;;;;;;;19.51;100.00;101153.34;7403274;19;20403;-51
2021/09/26 08:42:51;;;;;;;9.60;7.57;;;;;;;19.66;100.00;101163.13;7396755;19;20427;-58
2021/09/26 08:45:21;;;;;;;8.97;5.60;;;;;;;19.60;100.00;101158.72;7401322;19;20549;-59
2021/09/26 08:47:54;;;;;;;12.67;7.40;;;;;;;19.62;100.00;101150.84;7396561;19;20500;-56
2021/09/26 08:50:25;;;;;;;8.67;6.33;;;;;;;19.60;100.00;101156.09;7401151;19;20388;-58
2021/09/26 08:52:55;;;;;;;7.57;5.30;;;;;;;19.81;100.00;101151.94;7394423;19;20459;-57
2021/09/26 08:55:24;;;;;;;10.57;5.83;;;;;;;19.90;100.00;101151.16;7404063;19;20459;-59
2021/09/26 08:57:58;;;;;;;8.13;5.43;;;;;;;19.93;100.00;101146.81;7393295;19;20439;-58
2021/09/26 09:00:28;;;;;;;12.97;5.40;;;;;;;20.03;100.00;101158.28;7402839;19;20480;-55
2021/09/26 09:03:00;;;;;;;5.40;4.67;;;;;;;20.12;100.00;101154.84;7384805;19;20535;-56
2021/09/26 09:05:34;;;;;;;7.57;5.20;;;;;;;20.17;100.00;101155.78;7404298;19;20403;-58
2021/09/26 09:08:08;;;;;;;27.73;11.20;;;;;;;20.21;100.00;101157.53;7393023;19;20412;-57
2021/09/26 09:10:43;;;;;;;8.03;6.00;;;;;;;20.26;100.00;101148.84;7400602;19;20394;-55
2021/09/26 09:13:14;;;;;;;8.97;6.67;;;;;;;20.33;100.00;101140.16;7390924;19;20470;-56
2021/09/26 09:15:56;;;;;;;7.87;4.80;;;;;;;20.32;100.00;101135.81;7400318;19;20384;-57
2021/09/26 09:18:40;;;;;;;8.30;5.27;;;;;;;20.39;100.00;101139.34;7356053;19;20433;-57
2021/09/26 09:21:17;;;;;;;6.73;5.20;;;;;;;20.44;100.00;101137.63;7396266;19;20463;-50
2021/09/26 09:23:47;;;;;;;5.17;4.40;;;;;;;20.50;100.00;101143.78;7398351;19;20447;-54
2021/09/26 09:26:17;;;;;;;7.40;5.53;;;;;;;20.68;100.00;101136.03;7391338;19;20384;-53
2021/09/26 09:28:47;;;;;;;10.03;5.87;;;;;;;20.64;100.00;101143.00;7399455;19;20403;-52
2021/09/26 09:31:22;;;;;;;8.80;7.03;;;;;;;20.70;100.00;101135.16;7389725;19;20380;-53
2021/09/26 09:33:55;;;;;;;8.93;5.77;;;;;;;20.84;100.00;101132.66;7398406;19;20906;-52
2021/09/26 09:36:26;;;;;;;7.10;5.13;;;;;;;20.93;100.00;101131.84;7391754;19;20476;-54
2021/09/26 09:38:57;;;;;;;14.33;5.77;;;;;;;21.05;100.00;101136.25;7399226;19;20392;-55
2021/09/26 09:41:36;;;;;;;5.43;4.53;;;;;;;21.04;100.00;101145.00;7394618;19;20403;-51
2021/09/26 09:44:08;;;;;;;6.43;5.57;;;;;;;21.16;100.00;101145.03;7399822;19;20714;-53
2021/09/26 09:46:40;;;;;;;6.23;4.97;;;;;;;21.25;100.00;101141.56;7392869;19;20439;-50
2021/09/26 09:49:17;;;;;;;7.23;4.77;;;;;;;21.26;100.00;101124.06;7401331;19;20416;-54
2021/09/26 09:51:51;;;;;;;7.60;4.80;;;;;;;21.42;100.00;101130.22;7395833;19;20407;-55
2021/09/26 09:54:30;;;;;;;7.97;4.77;;;;;;;21.51;100.00;101132.91;7399098;19;20731;-57
2021/09/26 09:57:01;;;;;;;11.50;7.50;;;;;;;21.56;100.00;101140.78;7390908;19;20593;-56
2021/09/26 09:59:34;;;;;;;7.63;5.60;;;;;;;21.58;100.00;101136.38;7401985;19;21100;-57
2021/09/26 10:02:03;;;;;;;7.90;5.90;;;;;;;21.76;100.00;101143.47;7395922;19;20935;-57
2021/09/26 10:04:40;;;;;;;13.17;7.40;;;;;;;21.86;100.00;101141.72;7400128;19;20392;-57
2021/09/26 10:07:20;;;;;;;9.50;5.47;;;;;;;21.84;100.00;101138.25;7393380;19;21338;-53
2021/09/26 10:09:50;;;;;;;6.57;3.90;;;;;;;21.84;100.00;101130.38;7403656;19;20467;-56
2021/09/26 10:12:25;;;;;;;6.90;4.80;;;;;;;21.93;100.00;101137.34;7401815;19;20891;-56
2021/09/26 10:14:57;;;;;;;6.00;3.90;;;;;;;21.78;100.00;101132.97;7407399;19;20415;-55
2021/09/26 10:17:27;;;;;;;4.80;3.43;;;;;;;22.03;100.00;101130.34;7397038;19;20885;-56
2021/09/26 10:19:59;;;;;;;8.83;4.43;;;;;;;22.16;100.00;101121.59;7408108;19;20400;-55
2021/09/26 10:22:35;;;;;;;8.80;4.33;;;;;;;22.25;100.00;101121.59;7388805;19;20494;-53
2021/09/26 10:25:06;;;;;;;29.13;18.67;;;;;;;22.18;100.00;101113.69;7405949;19;20400;-58
2021/09/26 10:27:36;;;;;;;11.00;7.20;;;;;;;22.24;100.00;101117.22;7397470;19;20742;-58
2021/09/26 10:30:08;;;;;;;16.97;7.30;;;;;;;22.38;100.00;101097.91;7406054;19;20717;-53
2021/09/26 10:32:38;;;;;;;11.83;5.40;;;;;;;22.37;100.00;101101.41;7395177;19;20460;-59
2021/09/26 10:35:11;;;;;;;7.90;4.53;;;;;;;22.39;100.00;101099.66;7407198;19;20411;-56
2021/09/26 10:37:42;;;;;;;5.13;3.53;;;;;;;22.47;100.00;101102.28;7395652;19;20448;-56
2021/09/26 10:40:13;;;;;;;6.83;3.90;;;;;;;22.60;100.00;101103.16;7395201;19;20417;-57
2021/09/26 10:42:43;;;;;;;7.77;5.00;;;;;;;22.64;100.00;101099.63;7392648;19;20456;-52
2021/09/26 10:45:13;;;;;;;7.73;4.70;;;;;;;22.57;100.00;101103.16;7405101;19;20416;-51
2021/09/26 10:47:54;;;;;;;6.07;4.30;;;;;;;22.54;100.00;101103.19;7395567;19;20415;-55
2021/09/26 10:50:36;;;;;;;7.20;3.63;;;;;;;22.48;100.00;101104.91;7401124;19;20387;-55
2021/09/26 10:53:10;;;;;;;6.70;4.67;;;;;;;22.64;100.00;101104.88;7397760;19;20436;-56
2021/09/26 10:55:40;;;;;;;9.93;4.33;;;;;;;22.82;100.00;101108.34;7402726;19;20394;-57
2021/09/26 10:58:20;;;;;;;6.80;4.20;;;;;;;22.86;100.00;101096.94;7394363;19;20414;-55
2021/09/26 11:00:56;;;;;;;7.60;3.93;;;;;;;22.74;100.00;101090.84;7402642;19;20495;-59
2021/09/26 11:03:37;;;;;;;5.10;4.10;;;;;;;22.90;100.00;101093.38;7389891;19;21642;-57
2021/09/26 11:06:31;;;;;;;6.23;3.20;;;;;;;22.77;100.00;101098.69;7396290;19;20415;-56
2021/09/26 11:09:02;;;;;;;4.90;3.77;;;;;;;22.92;100.00;101099.53;7403692;19;20441;-53
2021/09/26 11:11:36;;;;;;;5.60;4.03;;;;;;;22.86;100.00;101096.94;7398158;19;20446;-57
2021/09/26 11:14:06;;;;;;;5.63;4.30;;;;;;;22.84;100.00;101096.03;7403153;19;20907;-60
2021/09/26 11:16:55;;;;;;;12.23;9.30;;;;;;;22.97;100.00;101092.47;7396086;19;20420;-56
2021/09/26 11:19:26;;;;;;;6.80;5.27;;;;;;;23.08;100.00;101092.44;7396326;19;20409;-59
2021/09/26 11:22:10;;;;;;;5.07;3.43;;;;;;;23.06;100.00;101092.44;7397316;19;20436;-59
2021/09/26 11:24:47;;;;;;;14.27;10.70;;;;;;;23.19;100.00;101087.97;7406345;19;20439;-57
2021/09/26 11:27:23;;;;;;;8.50;4.83;;;;;;;23.19;100.00;101087.13;7396981;19;20787;-59
2021/09/26 11:30:26;;;;;;;6.67;5.00;;;;;;;23.16;100.00;101080.13;7406741;19;20447;-52